Erie International Tom Ridge Field
KERI : now visible

Airfield :











YOU CAN JOIN US ON...

 
LOGIN :

Register | Disclaimer

   EN    FR    IT 

 









Legend :    VFR   Marginal VFR   IFR   Intensive IFR   Very Intensive IFR
Visi :
Ceiling :
>= 8 km
>= 3000ft
5 to 8 km
1000 to 3000 ft
1500m to 5 km
500 to 1000 ft
800 to 1500m
200 to 500 ft
< 800m
< 200 ft
Symbols :   Thunderstorms  Fog  Heavy snow  Heavy precipitations  Wind > 20 kt






- Airport Elevation : 733 ft
- IATA code : ERI


KERI - Erie International Tom Ridge Field

CURRENT METAR :
  • 221251Z 29015G26KT 10SM OVC025 06/M01 A2992 RMK AO2 PK WND 29026/1245 SLP134 T00561006

EXPIRED METARs :
  • 221151Z 29015G21KT 10SM BKN020 OVC027 06/01 A2986 RMK AO2 SLP115 60006 70017 T00610006 10100 20061 53016
  • 221051Z 28012G20KT 10SM FEW008 OVC015 06/03 A2984 RMK AO2 RAE03B19E44 SLP108 P0000 T00610033
  • 221040Z AUTO 29012G20KT 10SM -RA SCT008 OVC012 06/03 A2983 RMK AO2 RAE03B19 P0000 T00610033

TAF KERI
Valid from the 22 at 12:00 until the 23 at 12:00 UTC


221120Z 2212/2312 30015G23KT P6SM OVC015
TEMPO 2212/2214 4SM -RA BR BKN007
FM222200 30010KT P6SM SCT050
FM230100 VRB06KT P6SM SCT050 SCT250



MET'MAP, your aeronautical weather chart ! - Copyright ORBIFLY December 2007 - Disclaimer

ORBIFLY MET'MAP TEAM :

Programming & Development : Alexandra Zaïnal
Concept & Development : Baudouin d'Aumeries
Co-Development & Prog : Marc-Olivier Méhu
Technical & hardware support : Manuel Goepfert

Contact : metmap@orbifly.com




SOURCES & CREDITS :

   NOAA       Earth
Advisory